sensor_id;sensor_type;location;lat;lon;timestamp;pressure;altitude;pressure_sealevel;temperature;humidity
70053;BME280;57398;52.032;4.376;2023-02-04T00:01:13;103661.19;;;6.65;nan
70053;BME280;57398;52.032;4.376;2023-02-04T00:04:01;103661.56;;;6.60;nan
70053;BME280;57398;52.032;4.376;2023-02-04T00:06:50;103658.84;;;6.62;nan
70053;BME280;57398;52.032;4.376;2023-02-04T00:09:38;103659.53;;;6.64;nan
70053;BME280;57398;52.032;4.376;2023-02-04T00:12:26;103667.75;;;6.69;nan
70053;BME280;57398;52.032;4.376;2023-02-04T00:15:15;103662.25;;;6.62;nan
70053;BME280;57398;52.032;4.376;2023-02-04T00:18:04;103674.09;;;6.65;nan
70053;BME280;57398;52.032;4.376;2023-02-04T00:20:53;103671.53;;;6.65;nan
70053;BME280;57398;52.032;4.376;2023-02-04T00:23:41;103678.66;;;6.72;nan
70053;BME280;57398;52.032;4.376;2023-02-04T00:26:29;103680.78;;;6.67;nan
70053;BME280;57398;52.032;4.376;2023-02-04T00:29:17;103678.75;;;6.71;nan
70053;BME280;57398;52.032;4.376;2023-02-04T00:32:06;103662.47;;;6.70;nan
70053;BME280;57398;52.032;4.376;2023-02-04T00:34:56;103663.25;;;6.71;nan
70053;BME280;57398;52.032;4.376;2023-02-04T00:37:44;103669.84;;;6.75;nan
70053;BME280;57398;52.032;4.376;2023-02-04T00:40:32;103669.59;;;6.78;nan
70053;BME280;57398;52.032;4.376;2023-02-04T00:43:21;103675.81;;;6.76;nan
70053;BME280;57398;52.032;4.376;2023-02-04T00:46:09;103680.63;;;6.80;nan
70053;BME280;57398;52.032;4.376;2023-02-04T00:48:57;103683.34;;;6.79;nan
70053;BME280;57398;52.032;4.376;2023-02-04T00:51:47;103676.41;;;6.79;nan
70053;BME280;57398;52.032;4.376;2023-02-04T00:54:37;103686.63;;;6.81;nan
70053;BME280;57398;52.032;4.376;2023-02-04T00:57:25;103688.38;;;6.80;nan
70053;BME280;57398;52.032;4.376;2023-02-04T01:00:14;103690.84;;;6.82;nan
70053;BME280;57398;52.032;4.376;2023-02-04T01:03:03;103698.47;;;6.83;nan
70053;BME280;57398;52.032;4.376;2023-02-04T01:05:51;103693.78;;;6.77;nan
70053;BME280;57398;52.032;4.376;2023-02-04T01:08:41;103708.81;;;6.83;nan
70053;BME280;57398;52.032;4.376;2023-02-04T01:11:30;103704.56;;;6.82;nan
70053;BME280;57398;52.032;4.376;2023-02-04T01:14:18;103699.28;;;6.84;nan
70053;BME280;57398;52.032;4.376;2023-02-04T01:17:07;103701.97;;;6.82;nan
70053;BME280;57398;52.032;4.376;2023-02-04T01:19:55;103701.50;;;6.88;nan
70053;BME280;57398;52.032;4.376;2023-02-04T01:22:43;103706.78;;;6.87;nan
70053;BME280;57398;52.032;4.376;2023-02-04T01:25:33;103699.28;;;6.84;nan
70053;BME280;57398;52.032;4.376;2023-02-04T01:28:21;103702.13;;;6.81;nan
70053;BME280;57398;52.032;4.376;2023-02-04T01:31:10;103705.78;;;6.78;nan
70053;BME280;57398;52.032;4.376;2023-02-04T01:33:58;103702.50;;;6.76;nan
70053;BME280;57398;52.032;4.376;2023-02-04T01:36:47;103700.97;;;6.74;nan
70053;BME280;57398;52.032;4.376;2023-02-04T01:39:35;103708.59;;;6.75;nan
70053;BME280;57398;52.032;4.376;2023-02-04T01:42:25;103700.84;;;6.75;nan
70053;BME280;57398;52.032;4.376;2023-02-04T01:45:14;103708.59;;;6.75;nan
70053;BME280;57398;52.032;4.376;2023-02-04T01:48:03;103700.97;;;6.74;nan
70053;BME280;57398;52.032;4.376;2023-02-04T01:50:59;103699.44;;;6.71;nan
70053;BME280;57398;52.032;4.376;2023-02-04T01:53:48;103706.25;;;6.72;nan
70053;BME280;57398;52.032;4.376;2023-02-04T01:56:37;103712.69;;;6.78;nan
70053;BME280;57398;52.032;4.376;2023-02-04T01:59:28;103712.81;;;6.76;nan
70053;BME280;57398;52.032;4.376;2023-02-04T02:02:36;103717.16;;;6.76;nan
70053;BME280;57398;52.032;4.376;2023-02-04T02:05:29;103711.88;;;6.77;nan
70053;BME280;57398;52.032;4.376;2023-02-04T02:08:18;103712.69;;;6.78;nan
70053;BME280;57398;52.032;4.376;2023-02-04T02:11:07;103708.72;;;6.74;nan
70053;BME280;57398;52.032;4.376;2023-02-04T02:13:55;103710.94;;;6.78;nan
70053;BME280;57398;52.032;4.376;2023-02-04T02:16:45;103706.81;;;6.76;nan
70053;BME280;57398;52.032;4.376;2023-02-04T02:19:36;103706.59;;;6.79;nan
70053;BME280;57398;52.032;4.376;2023-02-04T02:22:28;103713.28;;;6.81;nan
70053;BME280;57398;52.032;4.376;2023-02-04T02:25:18;103717.47;;;6.82;nan
70053;BME280;57398;52.032;4.376;2023-02-04T02:28:11;103728.66;;;6.83;nan
70053;BME280;57398;52.032;4.376;2023-02-04T02:31:00;103739.94;;;6.82;nan
70053;BME280;57398;52.032;4.376;2023-02-04T02:33:48;103731.84;;;6.75;nan
70053;BME280;57398;52.032;4.376;2023-02-04T02:36:36;103741.94;;;6.78;nan
70053;BME280;57398;52.032;4.376;2023-02-04T02:39:25;103744.72;;;6.86;nan
70053;BME280;57398;52.032;4.376;2023-02-04T02:42:16;103746.88;;;6.81;nan
70053;BME280;57398;52.032;4.376;2023-02-04T02:45:12;103750.00;;;6.85;nan
70053;BME280;57398;52.032;4.376;2023-02-04T02:48:02;103745.19;;;6.80;nan
70053;BME280;57398;52.032;4.376;2023-02-04T02:50:51;103752.03;;;6.81;nan
70053;BME280;57398;52.032;4.376;2023-02-04T02:53:39;103743.69;;;6.78;nan
70053;BME280;57398;52.032;4.376;2023-02-04T02:56:27;103745.47;;;6.77;nan
70053;BME280;57398;52.032;4.376;2023-02-04T02:59:18;103747.34;;;6.75;nan
70053;BME280;57398;52.032;4.376;2023-02-04T03:02:07;103745.81;;;6.72;nan
70053;BME280;57398;52.032;4.376;2023-02-04T03:04:57;103748.28;;;6.74;nan
70053;BME280;57398;52.032;4.376;2023-02-04T03:07:47;103741.81;;;6.68;nan
70053;BME280;57398;52.032;4.376;2023-02-04T03:10:37;103740.91;;;6.69;nan
70053;BME280;57398;52.032;4.376;2023-02-04T03:13:25;103744.06;;;6.73;nan
70053;BME280;57398;52.032;4.376;2023-02-04T03:16:15;103742.16;;;6.75;nan
70053;BME280;57398;52.032;4.376;2023-02-04T03:19:05;103748.75;;;6.79;nan
70053;BME280;57398;52.032;4.376;2023-02-04T03:21:55;103741.81;;;6.80;nan
70053;BME280;57398;52.032;4.376;2023-02-04T03:24:44;103744.03;;;6.84;nan
70053;BME280;57398;52.032;4.376;2023-02-04T03:27:32;103744.84;;;6.85;nan
70053;BME280;57398;52.032;4.376;2023-02-04T03:30:21;103744.84;;;6.85;nan
70053;BME280;57398;52.032;4.376;2023-02-04T03:33:10;103746.59;;;6.84;nan
70053;BME280;57398;52.032;4.376;2023-02-04T03:35:58;103743.91;;;6.86;nan
70053;BME280;57398;52.032;4.376;2023-02-04T03:38:47;103746.59;;;6.84;nan
70053;BME280;57398;52.032;4.376;2023-02-04T03:41:35;103746.06;;;6.81;nan
70053;BME280;57398;52.032;4.376;2023-02-04T03:44:23;103733.00;;;6.82;nan
70053;BME280;57398;52.032;4.376;2023-02-04T03:47:12;103732.44;;;6.79;nan
70053;BME280;57398;52.032;4.376;2023-02-04T03:50:03;103736.66;;;6.68;nan
70053;BME280;57398;52.032;4.376;2023-02-04T03:52:51;103741.72;;;6.70;nan
70053;BME280;57398;52.032;4.376;2023-02-04T03:55:40;103733.06;;;6.60;nan
70053;BME280;57398;52.032;4.376;2023-02-04T03:58:28;103724.50;;;6.48;nan
70053;BME280;57398;52.032;4.376;2023-02-04T04:01:16;103724.38;;;6.49;nan
70053;BME280;57398;52.032;4.376;2023-02-04T04:04:04;103739.41;;;6.44;nan
70053;BME280;57398;52.032;4.376;2023-02-04T04:06:54;103748.78;;;6.45;nan
70053;BME280;57398;52.032;4.376;2023-02-04T04:09:43;103759.38;;;6.54;nan
70053;BME280;57398;52.032;4.376;2023-02-04T04:12:32;103759.38;;;6.54;nan
70053;BME280;57398;52.032;4.376;2023-02-04T04:15:20;103765.34;;;6.54;nan
70053;BME280;57398;52.032;4.376;2023-02-04T04:18:09;103765.09;;;6.57;nan
70053;BME280;57398;52.032;4.376;2023-02-04T04:20:57;103775.31;;;6.59;nan
70053;BME280;57398;52.032;4.376;2023-02-04T04:23:47;103780.59;;;6.57;nan
70053;BME280;57398;52.032;4.376;2023-02-04T04:26:35;103787.53;;;6.57;nan
70053;BME280;57398;52.032;4.376;2023-02-04T04:29:23;103784.00;;;6.58;nan
70053;BME280;57398;52.032;4.376;2023-02-04T04:32:13;103790.19;;;6.66;nan
70053;BME280;57398;52.032;4.376;2023-02-04T04:35:02;103799.50;;;6.69;nan
70053;BME280;57398;52.032;4.376;2023-02-04T04:37:50;103793.75;;;6.65;nan
70053;BME280;57398;52.032;4.376;2023-02-04T04:40:40;103798.19;;;6.63;nan
70053;BME280;57398;52.032;4.376;2023-02-04T04:43:28;103803.25;;;6.65;nan
70053;BME280;57398;52.032;4.376;2023-02-04T04:46:17;103816.38;;;6.62;nan
70053;BME280;57398;52.032;4.376;2023-02-04T04:49:06;103808.53;;;6.63;nan
70053;BME280;57398;52.032;4.376;2023-02-04T04:51:54;103817.25;;;6.62;nan
70053;BME280;57398;52.032;4.376;2023-02-04T04:54:42;103816.75;;;6.68;nan
70053;BME280;57398;52.032;4.376;2023-02-04T04:57:32;103816.03;;;6.66;nan
70053;BME280;57398;52.032;4.376;2023-02-04T05:00:21;103819.66;;;6.75;nan
70053;BME280;57398;52.032;4.376;2023-02-04T05:03:09;103816.16;;;6.76;nan
70053;BME280;57398;52.032;4.376;2023-02-04T05:05:58;103818.03;;;6.74;nan
70053;BME280;57398;52.032;4.376;2023-02-04T05:08:46;103819.81;;;6.74;nan
70053;BME280;57398;52.032;4.376;2023-02-04T05:11:35;103826.72;;;6.73;nan
70053;BME280;57398;52.032;4.376;2023-02-04T05:14:25;103822.25;;;6.75;nan
70053;BME280;57398;52.032;4.376;2023-02-04T05:17:13;103821.56;;;6.73;nan
70053;BME280;57398;52.032;4.376;2023-02-04T05:20:02;103820.38;;;6.77;nan
70053;BME280;57398;52.032;4.376;2023-02-04T05:22:50;103820.50;;;6.76;nan
70053;BME280;57398;52.032;4.376;2023-02-04T05:25:39;103825.44;;;6.79;nan
70053;BME280;57398;52.032;4.376;2023-02-04T05:28:27;103826.50;;;6.76;nan
70053;BME280;57398;52.032;4.376;2023-02-04T05:31:18;103823.06;;;6.76;nan
70053;BME280;57398;52.032;4.376;2023-02-04T05:34:06;103833.31;;;6.77;nan
70053;BME280;57398;52.032;4.376;2023-02-04T05:36:54;103818.16;;;6.72;nan
70053;BME280;57398;52.032;4.376;2023-02-04T05:39:42;103830.81;;;6.76;nan
70053;BME280;57398;52.032;4.376;2023-02-04T05:42:31;103835.31;;;6.74;nan
70053;BME280;57398;52.032;4.376;2023-02-04T05:45:19;103841.16;;;6.76;nan
70053;BME280;57398;52.032;4.376;2023-02-04T05:48:09;103842.22;;;6.73;nan
70053;BME280;57398;52.032;4.376;2023-02-04T05:50:58;103848.34;;;6.72;nan
70053;BME280;57398;52.032;4.376;2023-02-04T05:53:46;103842.34;;;6.71;nan
70053;BME280;57398;52.032;4.376;2023-02-04T05:56:35;103847.38;;;6.73;nan
70053;BME280;57398;52.032;4.376;2023-02-04T05:59:24;103857.72;;;6.73;nan
70053;BME280;57398;52.032;4.376;2023-02-04T06:02:12;103857.16;;;6.69;nan
70053;BME280;57398;52.032;4.376;2023-02-04T06:05:02;103860.56;;;6.70;nan
70053;BME280;57398;52.032;4.376;2023-02-04T06:07:50;103860.44;;;6.71;nan
70053;BME280;57398;52.032;4.376;2023-02-04T06:10:38;103871.69;;;6.70;nan
70053;BME280;57398;52.032;4.376;2023-02-04T06:13:27;103876.16;;;6.68;nan
70053;BME280;57398;52.032;4.376;2023-02-04T06:16:15;103875.34;;;6.68;nan
70053;BME280;57398;52.032;4.376;2023-02-04T06:19:03;103878.03;;;6.66;nan
70053;BME280;57398;52.032;4.376;2023-02-04T06:21:53;103871.94;;;6.67;nan
70053;BME280;57398;52.032;4.376;2023-02-04T06:24:42;103876.88;;;6.70;nan
70053;BME280;57398;52.032;4.376;2023-02-04T06:27:34;103884.16;;;6.65;nan
70053;BME280;57398;52.032;4.376;2023-02-04T06:30:22;103886.97;;;6.62;nan
70053;BME280;57398;52.032;4.376;2023-02-04T06:33:11;103887.44;;;6.67;nan
70053;BME280;57398;52.032;4.376;2023-02-04T06:35:59;103891.66;;;6.68;nan
70053;BME280;57398;52.032;4.376;2023-02-04T06:38:49;103902.84;;;6.69;nan
70053;BME280;57398;52.032;4.376;2023-02-04T06:41:38;103890.72;;;6.69;nan
70053;BME280;57398;52.032;4.376;2023-02-04T06:44:26;103900.81;;;6.72;nan
70053;BME280;57398;52.032;4.376;2023-02-04T06:47:14;103900.56;;;6.76;nan
70053;BME280;57398;52.032;4.376;2023-02-04T06:50:02;103903.16;;;6.76;nan
70053;BME280;57398;52.032;4.376;2023-02-04T06:52:51;103904.94;;;6.75;nan
70053;BME280;57398;52.032;4.376;2023-02-04T06:55:41;103901.44;;;6.76;nan
70053;BME280;57398;52.032;4.376;2023-02-04T06:58:29;103901.19;;;6.79;nan
70053;BME280;57398;52.032;4.376;2023-02-04T07:01:17;103902.81;;;6.80;nan
70053;BME280;57398;52.032;4.376;2023-02-04T07:04:06;103908.69;;;6.82;nan
70053;BME280;57398;52.032;4.376;2023-02-04T07:06:54;103914.56;;;6.84;nan
70053;BME280;57398;52.032;4.376;2023-02-04T07:09:42;103915.63;;;6.82;nan
70053;BME280;57398;52.032;4.376;2023-02-04T07:12:32;103917.63;;;6.78;nan
70053;BME280;57398;52.032;4.376;2023-02-04T07:15:21;103932.91;;;6.81;nan
70053;BME280;57398;52.032;4.376;2023-02-04T07:18:09;103926.06;;;6.80;nan
70053;BME280;57398;52.032;4.376;2023-02-04T07:20:57;103925.03;;;6.83;nan
70053;BME280;57398;52.032;4.376;2023-02-04T07:23:46;103924.44;;;6.90;nan
70053;BME280;57398;52.032;4.376;2023-02-04T07:26:34;103932.19;;;6.90;nan
70053;BME280;57398;52.032;4.376;2023-02-04T07:29:24;103930.78;;;6.98;nan
70053;BME280;57398;52.032;4.376;2023-02-04T07:32:13;103938.28;;;7.01;nan
70053;BME280;57398;52.032;4.376;2023-02-04T07:35:01;103938.31;;;6.89;nan
70053;BME280;57398;52.032;4.376;2023-02-04T07:37:50;103938.31;;;6.89;nan
70053;BME280;57398;52.032;4.376;2023-02-04T07:40:38;103945.22;;;6.89;nan
70053;BME280;57398;52.032;4.376;2023-02-04T07:43:26;103944.50;;;6.87;nan
70053;BME280;57398;52.032;4.376;2023-02-04T07:46:15;103949.56;;;6.88;nan
70053;BME280;57398;52.032;4.376;2023-02-04T07:49:04;103949.31;;;6.91;nan
70053;BME280;57398;52.032;4.376;2023-02-04T07:51:52;103949.22;;;6.93;nan
70053;BME280;57398;52.032;4.376;2023-02-04T07:54:40;103946.38;;;6.96;nan
70053;BME280;57398;52.032;4.376;2023-02-04T07:57:29;103958.16;;;7.00;nan
70053;BME280;57398;52.032;4.376;2023-02-04T08:00:17;103953.78;;;7.01;nan
70053;BME280;57398;52.032;4.376;2023-02-04T08:03:07;103961.53;;;7.01;nan
70053;BME280;57398;52.032;4.376;2023-02-04T08:05:56;103961.19;;;7.05;nan
70053;BME280;57398;52.032;4.376;2023-02-04T08:08:44;103955.34;;;7.03;nan
70053;BME280;57398;52.032;4.376;2023-02-04T08:11:32;103952.41;;;7.08;nan
70053;BME280;57398;52.032;4.376;2023-02-04T08:14:20;103953.44;;;7.17;nan
70053;BME280;57398;52.032;4.376;2023-02-04T08:17:08;103960.63;;;7.24;nan
70053;BME280;57398;52.032;4.376;2023-02-04T08:19:58;103955.19;;;7.27;nan
70053;BME280;57398;52.032;4.376;2023-02-04T08:22:46;103965.78;;;7.36;nan
70053;BME280;57398;52.032;4.376;2023-02-04T08:25:35;103955.88;;;7.41;nan
70053;BME280;57398;52.032;4.376;2023-02-04T08:28:24;103969.28;;;7.46;nan
70053;BME280;57398;52.032;4.376;2023-02-04T08:31:12;103973.03;;;7.53;nan
70053;BME280;57398;52.032;4.376;2023-02-04T08:34:00;103971.38;;;7.63;nan
70053;BME280;57398;52.032;4.376;2023-02-04T08:36:50;103974.16;;;7.71;nan
70053;BME280;57398;52.032;4.376;2023-02-04T08:39:38;103972.97;;;7.75;nan
70053;BME280;57398;52.032;4.376;2023-02-04T08:42:31;103971.31;;;7.86;nan
70053;BME280;57398;52.032;4.376;2023-02-04T08:45:20;103969.53;;;7.86;nan
70053;BME280;57398;52.032;4.376;2023-02-04T08:48:09;103981.16;;;7.92;nan
70053;BME280;57398;52.032;4.376;2023-02-04T08:50:57;103973.47;;;8.02;nan
70053;BME280;57398;52.032;4.376;2023-02-04T08:53:47;103973.56;;;8.11;nan
70053;BME280;57398;52.032;4.376;2023-02-04T08:56:35;103985.31;;;8.15;nan
70053;BME280;57398;52.032;4.376;2023-02-04T08:59:23;103985.75;;;8.21;nan
70053;BME280;57398;52.032;4.376;2023-02-04T09:02:12;103978.03;;;8.09;nan
70053;BME280;57398;52.032;4.376;2023-02-04T09:05:00;103979.44;;;8.13;nan
70053;BME280;57398;52.032;4.376;2023-02-04T09:07:48;103984.63;;;8.13;nan
70053;BME280;57398;52.032;4.376;2023-02-04T09:10:37;103980.97;;;8.16;nan
70053;BME280;57398;52.032;4.376;2023-02-04T09:13:26;103989.09;;;8.11;nan
70053;BME280;57398;52.032;4.376;2023-02-04T09:16:14;103987.69;;;8.07;nan
70053;BME280;57398;52.032;4.376;2023-02-04T09:19:04;103992.50;;;8.12;nan
70053;BME280;57398;52.032;4.376;2023-02-04T09:21:55;103989.47;;;8.07;nan
70053;BME280;57398;52.032;4.376;2023-02-04T09:24:43;103993.22;;;8.14;nan
70053;BME280;57398;52.032;4.376;2023-02-04T09:27:32;103986.31;;;8.24;nan
70053;BME280;57398;52.032;4.376;2023-02-04T09:30:21;103993.69;;;8.40;nan
70053;BME280;57398;52.032;4.376;2023-02-04T09:33:10;104000.19;;;8.34;nan
70053;BME280;57398;52.032;4.376;2023-02-04T09:35:59;104002.41;;;8.39;nan
70053;BME280;57398;52.032;4.376;2023-02-04T09:38:47;104002.69;;;8.25;nan
70053;BME280;57398;52.032;4.376;2023-02-04T09:41:37;104005.72;;;8.30;nan
70053;BME280;57398;52.032;4.376;2023-02-04T09:44:27;104006.72;;;8.50;nan
70053;BME280;57398;52.032;4.376;2023-02-04T09:47:20;104000.25;;;8.65;nan
70053;BME280;57398;52.032;4.376;2023-02-04T09:50:13;103997.28;;;8.70;nan
70053;BME280;57398;52.032;4.376;2023-02-04T09:53:04;104009.47;;;8.79;nan
70053;BME280;57398;52.032;4.376;2023-02-04T09:55:53;104001.28;;;8.74;nan
70053;BME280;57398;52.032;4.376;2023-02-04T09:58:41;104002.53;;;8.79;nan
70053;BME280;57398;52.032;4.376;2023-02-04T10:01:31;104001.09;;;8.87;nan
70053;BME280;57398;52.032;4.376;2023-02-04T10:04:21;104007.44;;;9.04;nan
70053;BME280;57398;52.032;4.376;2023-02-04T10:07:11;104001.09;;;8.87;nan
70053;BME280;57398;52.032;4.376;2023-02-04T10:09:59;103993.72;;;8.92;nan
70053;BME280;57398;52.032;4.376;2023-02-04T10:12:50;104009.28;;;8.92;nan
70053;BME280;57398;52.032;4.376;2023-02-04T10:15:39;103997.56;;;8.97;nan
70053;BME280;57398;52.032;4.376;2023-02-04T10:18:31;104001.94;;;8.97;nan
70053;BME280;57398;52.032;4.376;2023-02-04T10:21:29;104005.03;;;8.91;nan
70053;BME280;57398;52.032;4.376;2023-02-04T10:24:22;104006.97;;;8.89;nan
70053;BME280;57398;52.032;4.376;2023-02-04T10:27:13;104005.19;;;8.89;nan
70053;BME280;57398;52.032;4.376;2023-02-04T10:30:03;104004.59;;;8.86;nan
70053;BME280;57398;52.032;4.376;2023-02-04T10:32:52;104005.31;;;8.88;nan
70053;BME280;57398;52.032;4.376;2023-02-04T10:35:46;104004.19;;;8.80;nan
70053;BME280;57398;52.032;4.376;2023-02-04T10:38:35;104005.09;;;8.79;nan
70053;BME280;57398;52.032;4.376;2023-02-04T10:41:23;103992.91;;;8.70;nan
70053;BME280;57398;52.032;4.376;2023-02-04T10:44:15;104003.09;;;8.83;nan
70053;BME280;57398;52.032;4.376;2023-02-04T10:47:06;103998.09;;;8.70;nan
70053;BME280;57398;52.032;4.376;2023-02-04T10:50:01;104001.00;;;8.77;nan
70053;BME280;57398;52.032;4.376;2023-02-04T10:52:54;104013.03;;;8.78;nan
70053;BME280;57398;52.032;4.376;2023-02-04T10:56:04;104012.34;;;8.76;nan
70053;BME280;57398;52.032;4.376;2023-02-04T10:58:53;104020.28;;;8.84;nan
70053;BME280;57398;52.032;4.376;2023-02-04T11:01:41;104015.47;;;8.79;nan
70053;BME280;57398;52.032;4.376;2023-02-04T11:04:30;104008.94;;;8.75;nan
70053;BME280;57398;52.032;4.376;2023-02-04T11:07:18;104020.00;;;8.77;nan
70053;BME280;57398;52.032;4.376;2023-02-04T11:10:14;104008.09;;;8.75;nan
70053;BME280;57398;52.032;4.376;2023-02-04T11:13:05;104009.25;;;8.82;nan
70053;BME280;57398;52.032;4.376;2023-02-04T11:16:07;104012.16;;;8.89;nan
70053;BME280;57398;52.032;4.376;2023-02-04T11:18:57;103999.22;;;8.98;nan
70053;BME280;57398;52.032;4.376;2023-02-04T11:21:46;103997.63;;;9.07;nan
70053;BME280;57398;52.032;4.376;2023-02-04T11:24:34;103982.88;;;9.08;nan
70053;BME280;57398;52.032;4.376;2023-02-04T11:27:35;103991.19;;;9.01;nan
70053;BME280;57398;52.032;4.376;2023-02-04T11:30:30;103996.31;;;8.92;nan
70053;BME280;57398;52.032;4.376;2023-02-04T11:33:22;103985.91;;;8.82;nan
70053;BME280;57398;52.032;4.376;2023-02-04T11:36:12;103986.22;;;8.68;nan
70053;BME280;57398;52.032;4.376;2023-02-04T11:39:07;103994.69;;;8.70;nan
70053;BME280;57398;52.032;4.376;2023-02-04T11:42:01;103996.97;;;8.63;nan
70053;BME280;57398;52.032;4.376;2023-02-04T11:44:53;103998.31;;;8.57;nan
70053;BME280;57398;52.032;4.376;2023-02-04T11:47:42;103998.59;;;8.54;nan
70053;BME280;57398;52.032;4.376;2023-02-04T11:50:32;104000.38;;;8.43;nan
70053;BME280;57398;52.032;4.376;2023-02-04T11:53:23;104001.94;;;8.34;nan
70053;BME280;57398;52.032;4.376;2023-02-04T11:56:16;104012.53;;;8.42;nan
70053;BME280;57398;52.032;4.376;2023-02-04T11:59:04;104005.19;;;8.47;nan
70053;BME280;57398;52.032;4.376;2023-02-04T12:02:04;104009.75;;;8.55;nan
70053;BME280;57398;52.032;4.376;2023-02-04T12:04:54;104010.00;;;8.52;nan
70053;BME280;57398;52.032;4.376;2023-02-04T12:07:43;104006.84;;;8.48;nan
70053;BME280;57398;52.032;4.376;2023-02-04T12:10:32;104008.94;;;8.54;nan
70053;BME280;57398;52.032;4.376;2023-02-04T12:13:33;104013.66;;;8.70;nan
70053;BME280;57398;52.032;4.376;2023-02-04T12:16:23;104022.97;;;8.73;nan
70053;BME280;57398;52.032;4.376;2023-02-04T12:19:15;104015.50;;;8.58;nan
70053;BME280;57398;52.032;4.376;2023-02-04T12:22:04;104018.16;;;8.68;nan
70053;BME280;57398;52.032;4.376;2023-02-04T12:25:22;104011.53;;;8.54;nan
70053;BME280;57398;52.032;4.376;2023-02-04T12:28:13;104012.75;;;8.39;nan
70053;BME280;57398;52.032;4.376;2023-02-04T12:31:02;104009.69;;;8.45;nan
70053;BME280;57398;52.032;4.376;2023-02-04T12:33:50;104008.38;;;8.39;nan
70053;BME280;57398;52.032;4.376;2023-02-04T12:36:41;104003.31;;;8.49;nan
70053;BME280;57398;52.032;4.376;2023-02-04T12:39:29;104011.78;;;8.51;nan
70053;BME280;57398;52.032;4.376;2023-02-04T12:42:17;103998.13;;;8.49;nan
70053;BME280;57398;52.032;4.376;2023-02-04T12:45:06;104011.00;;;8.60;nan
70053;BME280;57398;52.032;4.376;2023-02-04T12:47:55;104010.94;;;8.72;nan
70053;BME280;57398;52.032;4.376;2023-02-04T12:50:43;104001.16;;;8.75;nan
70053;BME280;57398;52.032;4.376;2023-02-04T12:53:32;104002.97;;;8.85;nan
70053;BME280;57398;52.032;4.376;2023-02-04T12:56:20;104002.81;;;8.86;nan
70053;BME280;57398;52.032;4.376;2023-02-04T12:59:10;104001.19;;;8.85;nan
70053;BME280;57398;52.032;4.376;2023-02-04T13:01:58;103989.94;;;8.96;nan
70053;BME280;57398;52.032;4.376;2023-02-04T13:04:46;103994.97;;;8.97;nan
70053;BME280;57398;52.032;4.376;2023-02-04T13:07:34;103996.63;;;8.98;nan
70053;BME280;57398;52.032;4.376;2023-02-04T13:10:24;103990.00;;;9.15;nan
70053;BME280;57398;52.032;4.376;2023-02-04T13:13:12;103991.09;;;9.13;nan
70053;BME280;57398;52.032;4.376;2023-02-04T13:16:02;103983.59;;;9.19;nan
70053;BME280;57398;52.032;4.376;2023-02-04T13:18:50;103983.09;;;9.35;nan
70053;BME280;57398;52.032;4.376;2023-02-04T13:21:39;103981.84;;;9.30;nan
70053;BME280;57398;52.032;4.376;2023-02-04T13:24:27;103973.66;;;9.34;nan
70053;BME280;57398;52.032;4.376;2023-02-04T13:27:17;103970.69;;;9.39;nan
70053;BME280;57398;52.032;4.376;2023-02-04T13:30:09;103977.09;;;9.35;nan
70053;BME280;57398;52.032;4.376;2023-02-04T13:32:58;103963.56;;;9.21;nan
70053;BME280;57398;52.032;4.376;2023-02-04T13:35:46;103971.06;;;9.25;nan
70053;BME280;57398;52.032;4.376;2023-02-04T13:38:34;103978.03;;;9.34;nan
70053;BME280;57398;52.032;4.376;2023-02-04T13:41:22;103973.81;;;9.33;nan
70053;BME280;57398;52.032;4.376;2023-02-04T13:44:12;103973.94;;;9.31;nan
70053;BME280;57398;52.032;4.376;2023-02-04T13:47:00;103966.88;;;9.43;nan
70053;BME280;57398;52.032;4.376;2023-02-04T13:49:48;103953.78;;;9.44;nan
70053;BME280;57398;52.032;4.376;2023-02-04T13:52:36;103955.09;;;9.39;nan
70053;BME280;57398;52.032;4.376;2023-02-04T13:55:25;103956.34;;;9.35;nan
70053;BME280;57398;52.032;4.376;2023-02-04T13:58:13;103969.56;;;9.32;nan
70053;BME280;57398;52.032;4.376;2023-02-04T14:01:03;103961.50;;;9.25;nan
70053;BME280;57398;52.032;4.376;2023-02-04T14:03:51;103967.38;;;9.27;nan
70053;BME280;57398;52.032;4.376;2023-02-04T14:06:40;103971.88;;;9.25;nan
70053;BME280;57398;52.032;4.376;2023-02-04T14:09:29;103973.53;;;9.26;nan
70053;BME280;57398;52.032;4.376;2023-02-04T14:12:18;103975.72;;;9.31;nan
70053;BME280;57398;52.032;4.376;2023-02-04T14:15:07;103974.75;;;9.22;nan
70053;BME280;57398;52.032;4.376;2023-02-04T14:17:56;103974.22;;;9.28;nan
70053;BME280;57398;52.032;4.376;2023-02-04T14:20:44;103969.81;;;9.19;nan
70053;BME280;57398;52.032;4.376;2023-02-04T14:23:33;103967.63;;;9.14;nan
70053;BME280;57398;52.032;4.376;2023-02-04T14:26:21;103976.22;;;9.15;nan
70053;BME280;57398;52.032;4.376;2023-02-04T14:29:09;103976.03;;;9.07;nan
70053;BME280;57398;52.032;4.376;2023-02-04T14:31:58;103972.50;;;9.08;nan
70053;BME280;57398;52.032;4.376;2023-02-04T14:34:47;103979.47;;;9.07;nan
70053;BME280;57398;52.032;4.376;2023-02-04T14:37:36;103970.69;;;8.98;nan
70053;BME280;57398;52.032;4.376;2023-02-04T14:40:24;103969.03;;;8.97;nan
70053;BME280;57398;52.032;4.376;2023-02-04T14:43:13;103976.19;;;9.05;nan
70053;BME280;57398;52.032;4.376;2023-02-04T14:46:01;103982.63;;;9.11;nan
70053;BME280;57398;52.032;4.376;2023-02-04T14:48:51;103977.91;;;8.95;nan
70053;BME280;57398;52.032;4.376;2023-02-04T14:51:42;103971.63;;;8.97;nan
70053;BME280;57398;52.032;4.376;2023-02-04T14:54:30;103975.06;;;8.98;nan
70053;BME280;57398;52.032;4.376;2023-02-04T14:57:18;103972.03;;;8.93;nan
70053;BME280;57398;52.032;4.376;2023-02-04T15:00:08;103975.59;;;8.92;nan
70053;BME280;57398;52.032;4.376;2023-02-04T15:02:56;103968.22;;;8.97;nan
70053;BME280;57398;52.032;4.376;2023-02-04T15:05:44;103973.69;;;8.94;nan
70053;BME280;57398;52.032;4.376;2023-02-04T15:08:34;103975.84;;;8.89;nan
70053;BME280;57398;52.032;4.376;2023-02-04T15:11:22;103973.94;;;8.91;nan
70053;BME280;57398;52.032;4.376;2023-02-04T15:14:10;103980.34;;;8.87;nan
70053;BME280;57398;52.032;4.376;2023-02-04T15:16:59;103981.94;;;8.78;nan
70053;BME280;57398;52.032;4.376;2023-02-04T15:19:47;103985.06;;;8.81;nan
70053;BME280;57398;52.032;4.376;2023-02-04T15:22:36;103988.34;;;8.84;nan